Dati Storici

Data ora Umidita' aria (%) Temperatura aria (°C) Rad globale (W/m²) Gonioanemometro (°) Tacoanemometro (m/s) Pioggia (mm)
02-11-2012 04:50 96.4 % 6.797 2.275 17.736 1.048 0
02-11-2012 04:40 96.5 % 6.852 2.608 19.049 0.499 0
02-11-2012 04:30 96.4 % 6.846 2.621 43.766 1.097 0
02-11-2012 04:20 96.3 % 6.894 2.75 44.846 1.114 0
02-11-2012 04:10 96.2 % 6.909 2.788 18.206 1.183 0
02-11-2012 04:00 96.1 % 6.89 3.296 5.161 1.694 0
02-11-2012 03:50 96.3 % 7.04 3.103 284.639 1.03 0
02-11-2012 03:40 96.2 % 7.138 2.578 9.481 1.491 0
02-11-2012 03:30 96.1 % 7.209 2.539 35.397 1.069 0
02-11-2012 03:20 96 % 7.207 2.774 354.75 0.356 0
02-11-2012 03:10 95.7 % 7.072 2.992 51.601 0.481 0
02-11-2012 03:00 95.7 % 7.141 2.864 47.937 0.705 0
02-11-2012 02:50 95.7 % 7.264 3.274 35.201 1.531 0
02-11-2012 02:40 95.7 % 7.405 3.239 51.353 1.237 0
02-11-2012 02:30 95.5 % 7.368 3.368 24.696 1.046 0
02-11-2012 02:20 95.4 % 7.402 3.239 4.997 1.908 0
02-11-2012 02:10 95.4 % 7.551 3.252 50.531 1.409 0
02-11-2012 02:00 95.3 % 7.601 3.278 1.184 2.002 0
02-11-2012 01:50 95.2 % 7.688 2.802 7.993 1.676 0
02-11-2012 01:40 95 % 7.667 2.456 0.78 1.009 0

I dati sono presentati in modo automatico a scopo informativo. In seguito a verifica i dati possono subire modifiche o essere invalidati e non riportati negli archivi definitivi.